Tampa, Florida
Current Conditions -  °F | °C
As of 4:53 PM on Friday 28 Nov 2014 (Local Time) from KTPA Reporting Station
Clear Clear  
Wind Chill: 16°   Ceiling: Unl
Heat Index: 16°   Visibility: 10mi
Dew Point: -1°   Wind: 8mph
Humidity: 33%   Direction: 20°NNE
Pressure: 30.26"   Gusts: NA
Location:  27.95°N, 82.46°W
Report Text: KTPA 282153Z 02007KT 10SM CLR 16/M01 A3026 RMK AO2 SLP246 T01561006
Loading
Personal Weather Stations






























Interactive Weather Map New forecast layout! Learn more

10-Day Weather Forecast

Advertisements
Track Severe Weather on mobile